Terminal Aerodrome Forecast
Issued by NWS Sioux Falls, SD

Home | Current Version | Previous Version | Graphics & Text | Print | Product List | Glossary Off
Versions: 1 2 3 4 5 6 7 8 9 10 11 12 13 14 15 16 17 18 19 20 21 22 23 24 25 26 27 28 29 30 31 32 33 34 35 36 37 38 39 40 41 42

390
FTUS43 KFSD 151323 AAA
TAFSUX
TAF AMD
KSUX 151323Z 1513/1612 10005KT P6SM -SHRA OVC050
     FM151700 12009KT P6SM BKN040
     FM152000 14010KT P6SM SCT110
     FM152200 15010KT P6SM VCTS BKN050CB
     FM160200 13010KT P6SM SHRA VCTS OVC050CB
     FM161100 12007KT 4SM SHRA BR VCTS OVC035CB=

USA.gov is the U.S. government's official web portal to all federal, state and local government web resources and services.